createdAt,value
2023-05-05T00:00:43.321Z,73.47
2023-05-05T00:01:45.929Z,73.46
2023-05-05T00:02:48.691Z,73.66
2023-05-05T00:03:51.163Z,73.66
2023-05-05T00:04:53.518Z,73.75
2023-05-05T00:05:56.192Z,73.99
2023-05-05T00:06:58.836Z,74.24
2023-05-05T00:08:01.108Z,74.34
2023-05-05T00:09:03.259Z,74.22
2023-05-05T00:10:06.643Z,74.26
2023-05-05T00:11:09.096Z,74.58
2023-05-05T00:12:11.493Z,74.72
2023-05-05T00:13:14.432Z,74.55
2023-05-05T00:14:17.052Z,74.52
2023-05-05T00:15:19.290Z,74.49
2023-05-05T00:16:22.750Z,74.53
2023-05-05T00:17:25.439Z,74.37
2023-05-05T00:18:28.948Z,74.45
2023-05-05T00:19:31.832Z,74.55
2023-05-05T00:20:36.654Z,74.55
2023-05-05T00:21:39.531Z,74.19
2023-05-05T00:22:41.954Z,74.21
2023-05-05T00:23:44.202Z,73.96
2023-05-05T00:24:46.721Z,74.06
2023-05-05T00:25:48.856Z,73.75
2023-05-05T00:26:51.225Z,73.69
2023-05-05T00:27:53.541Z,74.09
2023-05-05T00:28:56.391Z,74.29
2023-05-05T00:29:59.057Z,74.06
2023-05-05T00:31:01.817Z,74.04
2023-05-05T00:32:04.596Z,74.22
2023-05-05T00:33:07.167Z,74.18
2023-05-05T00:34:09.488Z,75.05
2023-05-05T00:35:12.294Z,75.38
2023-05-05T00:36:14.789Z,75.34
2023-05-05T00:37:17.435Z,75.37
2023-05-05T00:38:21.061Z,75.12
2023-05-05T00:39:23.677Z,75.34
2023-05-05T00:40:26.326Z,75.29
2023-05-05T00:41:28.718Z,75.35
2023-05-05T00:42:47.190Z,75.49
2023-05-05T00:43:49.573Z,74.64
2023-05-05T00:44:52.499Z,74.27
2023-05-05T00:46:01.465Z,74.08
2023-05-05T00:47:04.388Z,74.08
2023-05-05T00:48:06.845Z,73.83
2023-05-05T00:49:09.933Z,73.53
2023-05-05T00:50:17.064Z,73.45
2023-05-05T00:51:21.002Z,73.45
2023-05-05T00:52:23.809Z,73.31
2023-05-05T00:53:27.789Z,73.10
2023-05-05T00:54:30.267Z,73.33
2023-05-05T00:55:34.223Z,74.17
2023-05-05T00:56:36.889Z,74.81
2023-05-05T00:57:39.381Z,74.78
2023-05-05T00:58:42.685Z,74.71
2023-05-05T00:59:46.452Z,75.03
2023-05-05T01:00:49.918Z,75.36
2023-05-05T01:01:52.237Z,75.50
2023-05-05T01:02:54.737Z,76.00
2023-05-05T01:03:57.440Z,76.30
2023-05-05T01:04:59.785Z,76.68
2023-05-05T01:06:17.818Z,76.69
2023-05-05T01:07:23.718Z,76.54
2023-05-05T01:08:35.142Z,76.62
2023-05-05T01:10:14.948Z,76.45
2023-05-05T01:11:08.034Z,76.72
2023-05-05T01:12:13.972Z,78.11
2023-05-05T01:13:42.561Z,78.62
2023-05-05T01:14:51.473Z,78.77
2023-05-05T01:16:28.158Z,78.54
2023-05-05T01:17:40.193Z,78.28
2023-05-05T01:19:16.620Z,77.66
2023-05-05T01:20:47.253Z,77.59
2023-05-05T01:21:53.130Z,77.43
2023-05-05T01:22:59.030Z,77.47
2023-05-05T01:24:21.459Z,77.87
2023-05-05T01:25:45.845Z,78.27
2023-05-05T01:26:51.945Z,78.85
2023-05-05T01:28:07.784Z,79.46
2023-05-05T01:29:46.365Z,79.92
2023-05-05T01:30:58.532Z,80.05
2023-05-05T01:32:05.827Z,80.17
2023-05-05T01:33:12.731Z,80.44
2023-05-05T01:34:18.734Z,80.69
2023-05-05T01:35:24.856Z,81.12
2023-05-05T01:36:30.959Z,81.30
2023-05-05T01:37:39.649Z,81.31
2023-05-05T01:38:45.577Z,81.29
2023-05-05T01:39:51.466Z,81.23
2023-05-05T01:41:03.059Z,81.00
2023-05-05T01:42:08.991Z,81.17
2023-05-05T01:43:14.712Z,81.20
2023-05-05T01:44:19.360Z,81.40
2023-05-05T01:45:25.394Z,81.68
2023-05-05T01:46:29.751Z,81.81
2023-05-05T01:47:32.120Z,81.96
2023-05-05T01:48:36.407Z,82.24
2023-05-05T01:49:40.373Z,82.46
2023-05-05T01:50:46.102Z,82.81
2023-05-05T01:51:49.861Z,83.27
2023-05-05T01:52:53.619Z,83.78
2023-05-05T01:54:01.025Z,84.55
2023-05-05T01:55:05.887Z,84.89
2023-05-05T01:56:10.191Z,85.33
2023-05-05T01:57:15.951Z,85.72
2023-05-05T01:58:21.682Z,86.12
2023-05-05T01:59:26.013Z,86.76
2023-05-05T02:00:29.972Z,87.78
2023-05-05T02:01:35.490Z,88.35
2023-05-05T02:02:40.719Z,88.60
2023-05-05T02:03:47.654Z,88.85
2023-05-05T02:04:52.598Z,88.70
2023-05-05T02:05:57.052Z,88.50
2023-05-05T02:07:02.779Z,88.99
2023-05-05T02:08:06.378Z,89.33
2023-05-05T02:09:12.440Z,89.73
2023-05-05T02:10:16.235Z,89.94
2023-05-05T02:11:20.928Z,89.95
2023-05-05T02:12:23.311Z,90.02
2023-05-05T02:13:28.875Z,90.45
2023-05-05T02:14:32.608Z,90.80
2023-05-05T02:15:37.171Z,90.88
2023-05-05T02:16:41.670Z,91.21
2023-05-05T02:17:45.966Z,91.40
2023-05-05T02:18:50.095Z,91.39
2023-05-05T02:19:54.391Z,91.80
2023-05-05T02:20:56.992Z,92.05
2023-05-05T02:21:59.608Z,92.26
2023-05-05T02:23:04.451Z,92.37
2023-05-05T02:24:08.346Z,92.62
2023-05-05T02:25:10.858Z,92.62
2023-05-05T02:26:16.197Z,92.51
2023-05-05T02:27:21.673Z,92.52
2023-05-05T02:28:56.795Z,92.83
2023-05-05T02:30:09.121Z,92.82
2023-05-05T02:31:13.884Z,92.89
2023-05-05T02:32:41.126Z,92.95
2023-05-05T02:33:47.026Z,92.69
2023-05-05T02:34:51.472Z,92.61
2023-05-05T02:35:57.621Z,92.80
2023-05-05T02:37:04.246Z,92.90
2023-05-05T02:38:12.857Z,93.09
2023-05-05T02:39:22.101Z,93.49
2023-05-05T02:40:27.965Z,93.55
2023-05-05T02:41:33.127Z,93.67
2023-05-05T02:42:40.910Z,93.45
2023-05-05T02:43:48.344Z,93.31
2023-05-05T02:44:54.567Z,93.68
2023-05-05T02:45:57.815Z,93.81
2023-05-05T02:47:06.301Z,93.79
2023-05-05T02:48:12.171Z,94.01
2023-05-05T02:49:15.993Z,94.17
2023-05-05T02:50:18.845Z,94.08
2023-05-05T02:51:23.019Z,93.84
2023-05-05T02:52:25.417Z,93.48
2023-05-05T02:53:29.312Z,93.13
2023-05-05T02:54:32.940Z,92.77
2023-05-05T02:55:48.219Z,92.51
2023-05-05T02:56:50.887Z,92.38
2023-05-05T02:58:06.024Z,92.41
2023-05-05T02:59:17.404Z,92.83
2023-05-05T03:00:24.493Z,93.13
2023-05-05T03:01:30.639Z,93.21
2023-05-05T03:02:41.457Z,92.99
2023-05-05T03:03:48.515Z,92.90
2023-05-05T03:05:00.979Z,92.82
2023-05-05T03:06:21.714Z,92.94
2023-05-05T03:07:40.371Z,92.66
2023-05-05T03:08:56.456Z,92.24
2023-05-05T03:10:09.137Z,92.01
2023-05-05T03:12:38.010Z,91.88
2023-05-05T03:13:43.779Z,91.60
2023-05-05T03:14:48.080Z,91.53
2023-05-05T03:15:52.872Z,91.24
2023-05-05T03:16:58.024Z,91.36
2023-05-05T03:18:02.204Z,91.36
2023-05-05T03:19:08.163Z,91.10
2023-05-05T03:20:13.342Z,91.18
2023-05-05T03:21:17.696Z,91.12
2023-05-05T03:22:21.759Z,90.92
2023-05-05T03:23:25.431Z,90.57
2023-05-05T03:24:29.575Z,90.20
2023-05-05T03:25:44.375Z,90.06
2023-05-05T03:26:49.733Z,89.76
2023-05-05T03:27:54.026Z,89.61
2023-05-05T03:28:56.876Z,89.13
2023-05-05T03:30:04.667Z,89.20
2023-05-05T03:31:07.646Z,89.11
2023-05-05T03:32:11.445Z,88.92
2023-05-05T03:33:15.526Z,88.57
2023-05-05T03:34:18.292Z,88.45
2023-05-05T03:35:22.470Z,88.33
2023-05-05T03:36:28.602Z,88.01
2023-05-05T03:37:31.837Z,87.92
2023-05-05T03:38:34.521Z,87.93
2023-05-05T03:39:37.391Z,87.71
2023-05-05T03:40:44.685Z,87.51
2023-05-05T03:41:45.703Z,87.37
2023-05-05T03:42:48.641Z,87.06
2023-05-05T03:43:51.046Z,87.18
2023-05-05T03:44:54.676Z,87.07
2023-05-05T03:45:57.332Z,86.95
2023-05-05T03:46:59.949Z,87.00
2023-05-05T03:48:04.247Z,87.01
2023-05-05T03:49:08.676Z,86.73
2023-05-05T03:50:13.010Z,86.65
2023-05-05T03:51:16.381Z,86.46
2023-05-05T03:52:19.676Z,86.20
2023-05-05T03:53:22.610Z,86.45
2023-05-05T03:54:25.655Z,86.57
2023-05-05T03:55:28.494Z,86.68
2023-05-05T03:56:30.936Z,86.40
2023-05-05T03:57:33.850Z,86.08
2023-05-05T03:58:36.344Z,85.90
2023-05-05T03:59:39.839Z,85.57
2023-05-05T04:00:43.211Z,85.14
2023-05-05T04:01:46.052Z,84.98
2023-05-05T04:02:48.874Z,84.84
2023-05-05T04:03:52.058Z,84.57
2023-05-05T04:04:56.251Z,84.18
2023-05-05T04:05:58.744Z,83.80
2023-05-05T04:07:01.144Z,84.02
2023-05-05T04:08:04.287Z,84.20
2023-05-05T04:09:06.635Z,84.49
2023-05-05T04:10:09.980Z,85.00
2023-05-05T04:11:12.338Z,85.21
2023-05-05T04:12:14.857Z,85.36
2023-05-05T04:13:17.532Z,85.34
2023-05-05T04:14:20.533Z,85.47
2023-05-05T04:15:22.885Z,85.44
2023-05-05T04:16:25.826Z,85.29
2023-05-05T04:17:28.810Z,85.30
2023-05-05T04:18:31.316Z,85.19
2023-05-05T04:19:33.946Z,84.85
2023-05-05T04:20:39.283Z,84.81
2023-05-05T04:21:41.783Z,84.78
2023-05-05T04:22:46.391Z,84.95
2023-05-05T04:23:49.263Z,85.34
2023-05-05T04:24:52.027Z,85.49
2023-05-05T04:25:54.289Z,85.62
2023-05-05T04:26:57.122Z,85.22
2023-05-05T04:28:01.019Z,84.90
2023-05-05T04:29:03.917Z,84.58
2023-05-05T04:30:09.178Z,84.68
2023-05-05T04:31:12.627Z,84.71
2023-05-05T04:32:16.346Z,84.38
2023-05-05T04:33:19.778Z,83.88
2023-05-05T04:34:22.813Z,83.31
2023-05-05T04:35:25.475Z,82.89
2023-05-05T04:36:28.055Z,82.59
2023-05-05T04:37:30.256Z,82.24
2023-05-05T04:38:34.981Z,82.08
2023-05-05T04:39:37.830Z,82.18
2023-05-05T04:40:40.839Z,81.18
2023-05-05T04:41:44.064Z,80.85
2023-05-05T04:42:46.836Z,80.82
2023-05-05T04:43:49.233Z,81.06
2023-05-05T04:44:52.070Z,81.49
2023-05-05T04:45:55.300Z,81.71
2023-05-05T04:47:03.548Z,82.32
2023-05-05T04:48:05.953Z,82.40
2023-05-05T04:49:08.776Z,82.59
2023-05-05T04:50:11.638Z,82.91
2023-05-05T04:51:14.879Z,82.99
2023-05-05T04:52:17.391Z,82.80
2023-05-05T04:53:20.411Z,83.29
2023-05-05T04:54:23.173Z,83.47
2023-05-05T04:55:26.365Z,83.64
2023-05-05T04:56:31.432Z,83.51
2023-05-05T04:57:33.667Z,83.42
2023-05-05T04:58:36.408Z,83.27
2023-05-05T04:59:39.060Z,83.75
2023-05-05T05:00:41.518Z,84.29
2023-05-05T05:01:45.490Z,84.88
2023-05-05T05:02:49.129Z,85.39
2023-05-05T05:03:52.670Z,85.70
2023-05-05T05:04:55.257Z,85.92
2023-05-05T05:05:57.934Z,85.85
2023-05-05T05:07:01.048Z,85.92
2023-05-05T05:08:03.836Z,85.71
2023-05-05T05:09:05.948Z,85.23
2023-05-05T05:10:09.965Z,85.40
2023-05-05T05:11:12.813Z,84.98
2023-05-05T05:12:15.706Z,84.51
2023-05-05T05:13:20.533Z,84.51
2023-05-05T05:14:23.840Z,84.22
2023-05-05T05:15:26.515Z,84.40
2023-05-05T05:16:30.739Z,84.48
2023-05-05T05:17:33.321Z,84.23
2023-05-05T05:18:36.198Z,84.04
2023-05-05T05:19:38.686Z,83.89
2023-05-05T05:20:41.022Z,83.62
2023-05-05T05:21:44.463Z,83.26
2023-05-05T05:22:47.233Z,83.23
2023-05-05T05:23:52.561Z,83.09
2023-05-05T05:24:54.909Z,83.29
2023-05-05T05:25:58.005Z,83.43
2023-05-05T05:27:03.225Z,83.22
2023-05-05T05:28:10.666Z,82.93
2023-05-05T05:29:12.369Z,82.73
2023-05-05T05:30:16.707Z,82.70
2023-05-05T05:31:19.507Z,82.81
2023-05-05T05:32:22.186Z,82.52
2023-05-05T05:33:25.893Z,82.38
2023-05-05T05:34:29.358Z,82.10
2023-05-05T05:35:32.533Z,81.66
2023-05-05T05:36:36.888Z,82.31
2023-05-05T05:37:46.712Z,82.61
2023-05-05T05:38:49.668Z,81.57
2023-05-05T05:39:52.360Z,80.40
2023-05-05T05:40:55.218Z,80.96
2023-05-05T05:41:59.109Z,80.37
2023-05-05T05:43:02.527Z,80.72
2023-05-05T05:44:05.010Z,78.95
2023-05-05T05:45:08.834Z,78.70
2023-05-05T05:46:11.961Z,77.98
2023-05-05T05:47:15.166Z,78.24
2023-05-05T05:48:17.990Z,78.93
2023-05-05T05:49:20.229Z,78.12
2023-05-05T05:50:23.953Z,78.57
2023-05-05T05:51:28.286Z,77.69
2023-05-05T05:52:30.880Z,77.73
2023-05-05T05:53:33.493Z,77.73
2023-05-05T05:54:35.694Z,77.97
2023-05-05T05:55:38.699Z,77.12
2023-05-05T05:56:41.234Z,78.67
2023-05-05T05:57:44.918Z,76.29
2023-05-05T05:58:48.604Z,76.29
2023-05-05T05:59:51.625Z,76.00
2023-05-05T06:00:54.216Z,75.80
2023-05-05T06:01:56.639Z,75.64
2023-05-05T06:02:59.069Z,75.04
2023-05-05T06:04:03.626Z,75.08
2023-05-05T06:05:07.024Z,75.88
2023-05-05T06:06:10.914Z,75.69
2023-05-05T06:07:13.848Z,75.48
2023-05-05T06:08:16.455Z,77.16
2023-05-05T06:09:21.852Z,77.83
2023-05-05T06:10:30.324Z,76.53
2023-05-05T06:11:29.279Z,78.46
2023-05-05T06:12:33.691Z,78.16
2023-05-05T06:13:36.573Z,78.77
2023-05-05T06:14:39.897Z,78.68
2023-05-05T06:15:43.641Z,79.20
2023-05-05T06:16:47.765Z,78.24
2023-05-05T06:17:52.003Z,76.69
2023-05-05T06:18:54.838Z,77.34
2023-05-05T06:19:57.042Z,76.38
2023-05-05T06:21:00.203Z,77.56
2023-05-05T06:22:03.081Z,75.93
2023-05-05T06:23:05.932Z,75.39
2023-05-05T06:24:10.254Z,75.54
2023-05-05T06:25:13.080Z,74.38
2023-05-05T06:26:18.231Z,73.71
2023-05-05T06:27:21.233Z,73.33
2023-05-05T06:28:24.295Z,72.84
2023-05-05T06:29:28.711Z,71.91
2023-05-05T06:30:31.439Z,70.50
2023-05-05T06:31:33.789Z,70.95
2023-05-05T06:32:36.962Z,71.04
2023-05-05T06:33:39.082Z,69.50
2023-05-05T06:34:44.266Z,72.46
2023-05-05T06:35:47.245Z,69.97
2023-05-05T06:36:50.228Z,70.90
2023-05-05T06:37:52.636Z,68.92
2023-05-05T06:38:54.884Z,67.24
2023-05-05T06:39:57.326Z,67.02
2023-05-05T06:41:01.066Z,67.18
2023-05-05T06:42:03.497Z,66.83
2023-05-05T06:43:06.811Z,66.88
2023-05-05T06:44:11.110Z,68.75
2023-05-05T06:45:13.765Z,66.30
2023-05-05T06:46:16.231Z,67.30
2023-05-05T06:47:18.559Z,67.30
2023-05-05T06:48:21.549Z,67.88
2023-05-05T06:49:23.714Z,67.41
2023-05-05T06:50:27.102Z,68.37
2023-05-05T06:51:30.907Z,67.72
2023-05-05T06:52:33.474Z,66.68
2023-05-05T06:53:35.753Z,67.05
2023-05-05T06:54:38.229Z,66.75
2023-05-05T06:55:44.374Z,65.64
2023-05-05T06:56:47.441Z,66.81
2023-05-05T06:57:50.170Z,65.69
2023-05-05T06:58:53.340Z,66.01
2023-05-05T06:59:55.948Z,64.77
2023-05-05T07:00:59.863Z,64.65
2023-05-05T07:02:02.500Z,64.28
2023-05-05T07:03:05.332Z,62.98
2023-05-05T07:04:08.687Z,62.83
2023-05-05T07:05:11.197Z,62.88
2023-05-05T07:06:13.638Z,64.35
2023-05-05T07:07:16.284Z,63.13
2023-05-05T07:08:19.791Z,65.39
2023-05-05T07:09:22.321Z,62.37
2023-05-05T07:10:25.705Z,61.88
2023-05-05T07:11:28.565Z,61.79
2023-05-05T07:12:30.977Z,61.05
2023-05-05T07:13:33.680Z,62.01
2023-05-05T07:14:35.678Z,61.84
2023-05-05T07:15:42.847Z,61.51
2023-05-05T07:16:45.845Z,61.14
2023-05-05T07:17:48.832Z,61.78
2023-05-05T07:18:51.371Z,63.34
2023-05-05T07:19:54.897Z,60.07
2023-05-05T07:20:57.424Z,60.43
2023-05-05T07:21:59.769Z,58.77
2023-05-05T07:23:02.276Z,58.89
2023-05-05T07:24:05.345Z,58.78
2023-05-05T07:25:09.074Z,59.05
2023-05-05T07:26:12.221Z,61.57
2023-05-05T07:27:15.197Z,58.35
2023-05-05T07:28:17.558Z,58.91
2023-05-05T07:29:20.003Z,57.38
2023-05-05T07:30:24.797Z,58.29
2023-05-05T07:31:29.356Z,57.52
2023-05-05T07:32:31.866Z,57.09
2023-05-05T07:33:34.380Z,58.17
2023-05-05T07:34:37.462Z,57.04
2023-05-05T07:35:40.183Z,56.66
2023-05-05T07:36:44.174Z,55.53
2023-05-05T07:37:47.445Z,55.18
2023-05-05T07:38:49.827Z,54.81
2023-05-05T07:39:53.885Z,54.75
2023-05-05T07:40:56.539Z,54.16
2023-05-05T07:41:59.444Z,54.16
2023-05-05T07:43:01.915Z,56.24
2023-05-05T07:44:05.376Z,54.78
2023-05-05T07:45:08.478Z,54.77
2023-05-05T07:46:10.913Z,54.91
2023-05-05T07:47:13.389Z,53.30
2023-05-05T07:48:15.980Z,53.92
2023-05-05T07:49:19.528Z,53.36
2023-05-05T07:50:22.587Z,52.38
2023-05-05T07:51:26.013Z,51.77
2023-05-05T07:52:44.329Z,51.35
2023-05-05T07:53:33.081Z,50.30
2023-05-05T07:54:35.712Z,50.49
2023-05-05T07:55:38.192Z,51.53
2023-05-05T07:56:41.076Z,52.15
2023-05-05T07:57:44.701Z,50.91
2023-05-05T07:58:47.531Z,48.73
2023-05-05T07:59:50.416Z,48.91
2023-05-05T08:00:52.800Z,51.56
2023-05-05T08:01:56.609Z,49.65
2023-05-05T08:02:58.988Z,50.06
2023-05-05T08:04:02.090Z,49.10
2023-05-05T08:05:05.883Z,51.42
2023-05-05T08:06:10.073Z,51.26
2023-05-05T08:07:12.700Z,53.52
2023-05-05T08:08:15.715Z,50.01
2023-05-05T08:09:18.640Z,49.39
2023-05-05T08:10:23.952Z,49.74
2023-05-05T08:11:27.181Z,49.13
2023-05-05T08:12:30.586Z,51.37
2023-05-05T08:13:33.131Z,50.98
2023-05-05T08:14:36.020Z,50.00
2023-05-05T08:15:38.711Z,51.37
2023-05-05T08:16:41.213Z,51.63
2023-05-05T08:17:46.984Z,51.61
2023-05-05T08:18:49.101Z,52.69
2023-05-05T08:19:54.596Z,50.46
2023-05-05T08:20:57.375Z,50.22
2023-05-05T08:22:01.482Z,50.26
2023-05-05T08:23:05.247Z,50.30
2023-05-05T08:24:07.528Z,50.79
2023-05-05T08:25:13.222Z,51.70
2023-05-05T08:26:15.965Z,52.82
2023-05-05T08:27:18.211Z,51.35
2023-05-05T08:28:20.916Z,51.12
2023-05-05T08:29:23.629Z,53.97
2023-05-05T08:30:26.551Z,51.21
2023-05-05T08:31:36.245Z,52.33
2023-05-05T08:32:39.778Z,54.18
2023-05-05T08:33:42.905Z,50.62
2023-05-05T08:34:45.399Z,49.60
2023-05-05T08:35:49.985Z,51.17
2023-05-05T08:36:53.458Z,49.61
2023-05-05T08:39:04.328Z,48.93
2023-05-05T08:41:25.656Z,51.20
2023-05-05T08:42:38.112Z,49.46
2023-05-05T08:43:36.485Z,50.05
2023-05-05T08:44:39.153Z,49.71
2023-05-05T08:45:41.765Z,49.71
2023-05-05T08:46:44.487Z,48.47
2023-05-05T08:47:47.480Z,51.18
2023-05-05T08:48:53.431Z,50.28
2023-05-05T08:49:58.480Z,51.37
2023-05-05T08:51:05.785Z,48.55
2023-05-05T08:52:10.989Z,48.55
2023-05-05T08:53:17.442Z,48.75
2023-05-05T08:54:21.865Z,49.40
2023-05-05T08:55:26.136Z,49.45
2023-05-05T08:56:39.192Z,49.87
2023-05-05T08:57:47.929Z,47.25
2023-05-05T08:58:51.701Z,49.90
2023-05-05T08:59:57.412Z,48.16
2023-05-05T09:01:01.530Z,47.61
2023-05-05T09:02:05.352Z,46.64
2023-05-05T09:03:08.134Z,47.39
2023-05-05T09:04:10.728Z,47.26
2023-05-05T09:05:13.153Z,47.39
2023-05-05T09:06:16.843Z,46.11
2023-05-05T09:07:19.372Z,45.59
2023-05-05T09:08:22.537Z,45.33
2023-05-05T09:09:25.925Z,44.99
2023-05-05T09:10:29.127Z,44.89
2023-05-05T09:11:34.860Z,45.20
2023-05-05T09:12:41.927Z,45.04
2023-05-05T09:13:44.174Z,45.24
2023-05-05T09:14:47.597Z,44.73
2023-05-05T09:15:50.712Z,46.63
2023-05-05T09:16:53.717Z,44.14
2023-05-05T09:18:00.887Z,43.87
2023-05-05T09:19:05.474Z,45.24
2023-05-05T09:20:13.268Z,44.12
2023-05-05T09:21:22.093Z,47.32
2023-05-05T09:22:42.061Z,44.19
2023-05-05T09:23:48.328Z,43.08
2023-05-05T09:24:55.305Z,41.69
2023-05-05T09:26:05.447Z,41.58
2023-05-05T09:27:11.245Z,43.24
2023-05-05T09:28:16.060Z,44.15
2023-05-05T09:29:22.081Z,42.43
2023-05-05T09:30:30.127Z,43.92
2023-05-05T09:31:34.235Z,43.56
2023-05-05T09:32:50.666Z,43.37
2023-05-05T09:33:53.019Z,40.98
2023-05-05T09:35:00.534Z,41.22
2023-05-05T09:36:04.229Z,42.05
2023-05-05T09:37:06.585Z,41.33
2023-05-05T09:38:12.107Z,40.71
2023-05-05T09:39:17.391Z,40.86
2023-05-05T09:40:20.929Z,40.86
2023-05-05T09:41:41.475Z,41.03
2023-05-05T09:42:44.273Z,41.03
2023-05-05T09:43:52.872Z,41.06
2023-05-05T09:44:59.108Z,39.83
2023-05-05T09:46:08.038Z,40.83
2023-05-05T09:47:26.068Z,42.16
2023-05-05T09:48:28.158Z,39.90
2023-05-05T09:49:30.658Z,40.51
2023-05-05T09:50:43.800Z,39.71
2023-05-05T09:51:47.269Z,40.13
2023-05-05T09:53:00.534Z,40.41
2023-05-05T09:54:03.165Z,40.60
2023-05-05T09:55:08.124Z,39.82
2023-05-05T09:56:11.510Z,39.82
2023-05-05T09:57:28.591Z,40.86
2023-05-05T09:58:31.094Z,41.30
2023-05-05T09:59:33.718Z,39.79
2023-05-05T10:00:39.199Z,39.62
2023-05-05T10:01:43.807Z,39.62
2023-05-05T10:02:46.809Z,38.14
2023-05-05T10:03:52.026Z,38.07
2023-05-05T10:05:13.296Z,38.33
2023-05-05T10:06:16.153Z,38.93
2023-05-05T10:07:24.047Z,38.31
2023-05-05T10:08:30.036Z,38.84
2023-05-05T10:09:32.121Z,39.53
2023-05-05T10:10:35.965Z,39.55
2023-05-05T10:11:41.813Z,42.83
2023-05-05T10:12:47.014Z,41.30
2023-05-05T10:13:49.516Z,39.85
2023-05-05T10:14:54.397Z,41.00
2023-05-05T10:15:59.109Z,41.86
2023-05-05T10:17:02.593Z,38.97
2023-05-05T10:18:08.098Z,39.28
2023-05-05T10:19:13.728Z,41.65
2023-05-05T10:20:18.484Z,40.99
2023-05-05T10:21:21.767Z,40.41
2023-05-05T10:22:26.208Z,40.41
2023-05-05T10:23:38.577Z,40.37
2023-05-05T10:24:48.886Z,40.10
2023-05-05T10:26:02.010Z,40.67
2023-05-05T10:27:13.647Z,39.92
2023-05-05T10:28:22.312Z,39.65
2023-05-05T10:29:50.382Z,39.06
2023-05-05T10:30:56.485Z,38.84
2023-05-05T10:32:21.434Z,39.70
2023-05-05T10:33:31.124Z,42.45
2023-05-05T10:34:26.464Z,40.28
2023-05-05T10:35:33.277Z,40.11
2023-05-05T10:36:38.901Z,41.40
2023-05-05T10:37:41.143Z,40.00
2023-05-05T10:38:46.617Z,39.66
2023-05-05T10:39:55.086Z,41.14
2023-05-05T10:42:12.291Z,41.46
2023-05-05T10:43:15.705Z,39.46
2023-05-05T10:44:19.072Z,38.71
2023-05-05T10:45:21.365Z,39.41
2023-05-05T10:46:26.294Z,37.53
2023-05-05T10:47:31.002Z,38.29
2023-05-05T10:48:39.799Z,40.54
2023-05-05T10:50:00.761Z,39.49
2023-05-05T10:51:13.212Z,36.54
2023-05-05T10:52:38.721Z,37.22
2023-05-05T10:53:45.109Z,36.51
2023-05-05T10:54:51.017Z,37.91
2023-05-05T10:55:59.832Z,36.45
2023-05-05T10:57:04.495Z,36.05
2023-05-05T10:58:06.841Z,36.26
2023-05-05T10:59:39.054Z,38.38
2023-05-05T11:00:45.282Z,36.97
2023-05-05T11:01:49.513Z,36.08
2023-05-05T11:02:54.151Z,36.64
2023-05-05T11:04:17.465Z,35.51
2023-05-05T11:05:22.778Z,34.42
2023-05-05T11:06:25.403Z,34.33
2023-05-05T11:07:27.942Z,34.25
2023-05-05T11:08:31.766Z,34.39
2023-05-05T11:09:36.907Z,33.06
2023-05-05T11:10:45.389Z,34.29
2023-05-05T11:12:06.759Z,36.07
2023-05-05T11:13:12.712Z,35.94
2023-05-05T11:14:24.527Z,36.33
2023-05-05T11:15:34.233Z,37.06
2023-05-05T11:16:46.556Z,35.81
2023-05-05T11:17:49.756Z,35.77
2023-05-05T11:18:52.122Z,35.89
2023-05-05T11:19:54.246Z,36.22
2023-05-05T11:21:03.100Z,34.85
2023-05-05T11:22:06.265Z,36.00
2023-05-05T11:23:13.457Z,33.59
2023-05-05T11:24:22.905Z,37.10
2023-05-05T11:25:41.141Z,33.91
2023-05-05T11:26:51.120Z,36.72
2023-05-05T11:28:13.239Z,33.96
2023-05-05T11:29:16.620Z,35.41
2023-05-05T11:30:19.098Z,32.88
2023-05-05T11:31:22.019Z,33.62
2023-05-05T11:32:24.457Z,33.37
2023-05-05T11:33:32.978Z,32.67
2023-05-05T11:34:35.688Z,32.62
2023-05-05T11:37:08.995Z,33.76
2023-05-05T11:38:14.329Z,33.69
2023-05-05T11:39:20.219Z,32.26
2023-05-05T11:40:26.158Z,33.09
2023-05-05T11:41:34.878Z,33.12
2023-05-05T11:42:37.322Z,32.48
2023-05-05T11:43:43.264Z,32.59
2023-05-05T11:44:45.859Z,31.63
2023-05-05T11:45:48.742Z,32.22
2023-05-05T11:46:55.022Z,33.48
2023-05-05T11:48:27.997Z,33.03
2023-05-05T11:49:38.380Z,34.43
2023-05-05T11:50:41.816Z,33.70
2023-05-05T11:51:46.164Z,33.72
2023-05-05T11:52:49.311Z,32.76
2023-05-05T11:53:52.525Z,34.60
2023-05-05T11:54:59.458Z,32.82
2023-05-05T11:56:10.536Z,32.65
2023-05-05T11:57:14.045Z,33.07
2023-05-05T11:58:21.508Z,33.04
2023-05-05T11:59:24.991Z,33.67
2023-05-05T12:00:33.510Z,31.73
2023-05-05T12:01:40.913Z,32.18
2023-05-05T12:02:43.221Z,32.89
2023-05-05T12:03:46.205Z,31.30
2023-05-05T12:04:50.841Z,33.06
2023-05-05T12:05:56.135Z,32.65
2023-05-05T12:06:59.418Z,31.57
2023-05-05T12:08:01.763Z,31.46
2023-05-05T12:09:05.851Z,33.44
2023-05-05T12:10:10.599Z,32.87
2023-05-05T12:11:12.915Z,33.12
2023-05-05T12:12:16.176Z,33.81
2023-05-05T12:13:20.300Z,33.93
2023-05-05T12:14:26.422Z,32.47
2023-05-05T12:15:32.198Z,32.83
2023-05-05T12:16:35.319Z,32.00
2023-05-05T12:17:40.241Z,31.44
2023-05-05T12:18:42.673Z,31.53
2023-05-05T12:19:47.387Z,31.66
2023-05-05T12:20:51.175Z,31.08
2023-05-05T12:21:53.705Z,30.77
2023-05-05T12:23:03.321Z,31.97
2023-05-05T12:24:06.711Z,31.49
2023-05-05T12:25:10.006Z,30.92
2023-05-05T12:26:28.938Z,30.70
2023-05-05T12:27:31.389Z,32.81
2023-05-05T12:28:47.361Z,30.80
2023-05-05T12:29:51.225Z,29.83
2023-05-05T12:30:58.358Z,29.93
2023-05-05T12:32:02.166Z,31.00
2023-05-05T12:33:06.271Z,29.51
2023-05-05T12:34:10.561Z,29.72
2023-05-05T12:35:13.452Z,28.13
2023-05-05T12:36:16.414Z,28.80
2023-05-05T12:37:19.280Z,28.27
2023-05-05T12:38:21.684Z,27.88
2023-05-05T12:39:35.783Z,26.92
2023-05-05T12:40:45.248Z,28.46
2023-05-05T12:41:48.135Z,27.28
2023-05-05T12:42:52.410Z,28.48
2023-05-05T12:43:59.488Z,27.96
2023-05-05T12:45:02.280Z,26.91
2023-05-05T12:46:11.350Z,26.67
2023-05-05T12:47:15.496Z,24.98
2023-05-05T12:48:22.045Z,28.68
2023-05-05T12:49:24.945Z,27.23
2023-05-05T12:50:31.920Z,27.21
2023-05-05T12:51:35.685Z,26.71
2023-05-05T12:52:44.864Z,26.84
2023-05-05T12:53:49.335Z,26.60
2023-05-05T12:54:56.904Z,26.84
2023-05-05T12:55:59.395Z,27.41
2023-05-05T12:57:05.592Z,28.71
2023-05-05T12:58:08.134Z,32.77
2023-05-05T12:59:12.055Z,29.86
2023-05-05T13:00:17.470Z,27.36
2023-05-05T13:01:21.003Z,27.76
2023-05-05T13:02:27.054Z,27.42
2023-05-05T13:03:30.492Z,27.89
2023-05-05T13:04:33.333Z,28.00
2023-05-05T13:05:37.846Z,25.81
2023-05-05T13:06:43.968Z,27.57
2023-05-05T13:07:50.818Z,26.78
2023-05-05T13:08:53.317Z,26.94
2023-05-05T13:10:10.270Z,27.61
2023-05-05T13:11:12.674Z,26.88
2023-05-05T13:12:18.438Z,26.80
2023-05-05T13:13:20.735Z,25.80
2023-05-05T13:14:26.181Z,27.93
2023-05-05T13:15:28.344Z,26.56
2023-05-05T13:16:30.751Z,27.59
2023-05-05T13:17:34.885Z,27.67
2023-05-05T13:18:50.051Z,25.55
2023-05-05T13:19:52.431Z,25.48
2023-05-05T13:20:55.168Z,26.24
2023-05-05T13:21:58.451Z,28.77
2023-05-05T13:23:01.221Z,27.92
2023-05-05T13:24:23.038Z,28.00
2023-05-05T13:25:10.981Z,29.12
2023-05-05T13:26:14.032Z,28.50
2023-05-05T13:27:16.779Z,27.59
2023-05-05T13:28:18.985Z,29.27
2023-05-05T13:29:21.435Z,27.21
2023-05-05T13:30:24.177Z,27.71
2023-05-05T13:31:27.169Z,28.32
2023-05-05T13:32:29.583Z,28.12
2023-05-05T13:33:36.127Z,26.57
2023-05-05T13:34:38.678Z,25.75
2023-05-05T13:35:41.662Z,26.35
2023-05-05T13:36:44.240Z,26.66
2023-05-05T13:37:47.571Z,25.40
2023-05-05T13:38:50.254Z,24.95
2023-05-05T13:39:54.964Z,25.53
2023-05-05T13:40:57.563Z,25.39
2023-05-05T13:41:59.859Z,25.23
2023-05-05T13:43:02.590Z,25.44
2023-05-05T13:44:06.094Z,27.02
2023-05-05T13:45:09.737Z,26.77
2023-05-05T13:46:20.199Z,27.21
2023-05-05T13:47:19.439Z,27.78
2023-05-05T13:48:23.219Z,27.75
2023-05-05T13:49:27.177Z,27.68
2023-05-05T13:50:29.543Z,27.41
2023-05-05T13:51:33.849Z,27.47
2023-05-05T13:52:37.227Z,27.66
2023-05-05T13:53:41.108Z,27.15
2023-05-05T13:54:43.472Z,28.50
2023-05-05T13:55:45.695Z,26.66
2023-05-05T13:56:48.636Z,25.80
2023-05-05T13:57:51.643Z,25.83
2023-05-05T13:58:54.795Z,26.05
2023-05-05T13:59:57.116Z,24.53
2023-05-05T14:01:00.150Z,25.30
2023-05-05T14:02:02.596Z,25.47
2023-05-05T14:03:05.607Z,23.40
2023-05-05T14:04:08.316Z,23.93
2023-05-05T14:05:11.768Z,23.60